createdAt,value
2019-05-30T00:03:22.817Z,87.76
2019-05-30T00:08:27.010Z,88.58
2019-05-30T00:13:31.320Z,89.05
2019-05-30T00:18:35.439Z,89.72
2019-05-30T00:23:39.852Z,90.42
2019-05-30T00:28:43.972Z,91.37
2019-05-30T00:33:48.116Z,91.48
2019-05-30T00:38:52.116Z,92.21
2019-05-30T00:43:56.410Z,91.83
2019-05-30T00:49:00.790Z,91.64
2019-05-30T00:54:04.866Z,92.43
2019-05-30T00:59:08.882Z,93.25
2019-05-30T01:04:12.939Z,92.44
2019-05-30T01:09:17.025Z,93.02
2019-05-30T01:14:21.075Z,94.26
2019-05-30T01:19:25.087Z,93.61
2019-05-30T01:24:29.243Z,94.29
2019-05-30T01:29:34.415Z,95.80
2019-05-30T01:34:38.551Z,95.81
2019-05-30T01:39:42.618Z,96.65
2019-05-30T01:44:46.640Z,96.44
2019-05-30T01:49:50.673Z,96.69
2019-05-30T01:54:54.850Z,96.51
2019-05-30T01:59:58.996Z,97.00
2019-05-30T02:05:03.563Z,97.61
2019-05-30T02:10:10.072Z,98.26
2019-05-30T02:15:14.670Z,98.61
2019-05-30T02:20:18.993Z,98.81
2019-05-30T02:25:23.055Z,99.10
2019-05-30T02:30:27.091Z,99.51
2019-05-30T02:35:31.526Z,99.64
2019-05-30T02:40:36.038Z,100.00
2019-05-30T02:45:40.307Z,100.00
2019-05-30T02:50:44.773Z,100.00
2019-05-30T02:55:50.995Z,100.00
2019-05-30T03:00:55.204Z,100.00
2019-05-30T03:06:01.641Z,100.00
2019-05-30T03:11:09.373Z,100.00
2019-05-30T03:16:13.509Z,100.00
2019-05-30T03:21:17.549Z,100.00
2019-05-30T03:26:21.646Z,100.00
2019-05-30T03:31:29.947Z,99.83
2019-05-30T03:36:33.772Z,98.57
2019-05-30T03:41:38.422Z,98.04
2019-05-30T03:46:46.770Z,97.32
2019-05-30T03:51:53.225Z,96.56
2019-05-30T03:57:06.960Z,96.17
2019-05-30T04:02:22.398Z,94.63
2019-05-30T04:07:29.062Z,93.08
2019-05-30T04:12:52.816Z,91.83
2019-05-30T04:17:57.134Z,90.42
2019-05-30T04:23:01.735Z,89.43
2019-05-30T04:28:07.661Z,88.65
2019-05-30T04:33:23.677Z,59.00
2019-05-30T04:38:19.504Z,38.80
2019-05-30T04:43:24.050Z,34.22
2019-05-30T04:48:28.075Z,31.31
2019-05-30T04:53:32.225Z,30.09
2019-05-30T04:58:41.531Z,26.13
2019-05-30T05:03:46.191Z,26.15
2019-05-30T05:08:48.174Z,24.29
2019-05-30T05:13:52.461Z,24.93
2019-05-30T05:18:56.762Z,24.47
2019-05-30T05:24:01.092Z,24.61
2019-05-30T05:29:05.382Z,25.20
2019-05-30T05:34:09.504Z,25.17
2019-05-30T05:39:13.818Z,24.54
2019-05-30T05:44:18.581Z,22.76
2019-05-30T05:49:23.031Z,22.88
2019-05-30T05:54:27.776Z,23.50
2019-05-30T05:59:31.873Z,22.16
2019-05-30T06:04:36.054Z,22.98
2019-05-30T06:09:40.446Z,22.59
2019-05-30T06:14:44.836Z,22.49
2019-05-30T06:19:49.260Z,22.65
2019-05-30T06:24:53.702Z,22.09
2019-05-30T06:29:59.282Z,20.49
2019-05-30T06:35:04.172Z,20.74
2019-05-30T06:40:08.446Z,21.97
2019-05-30T06:45:13.393Z,22.51
2019-05-30T06:50:17.474Z,21.61
2019-05-30T06:55:21.627Z,22.08
2019-05-30T07:00:26.534Z,22.65
2019-05-30T07:05:32.928Z,22.00
2019-05-30T07:10:36.904Z,21.75
2019-05-30T07:15:41.090Z,19.22
2019-05-30T07:20:45.362Z,19.28
2019-05-30T07:25:49.538Z,19.02
2019-05-30T07:30:53.646Z,19.57
2019-05-30T07:35:57.723Z,20.10
2019-05-30T07:41:01.824Z,19.84
2019-05-30T07:46:06.017Z,20.15
2019-05-30T07:51:10.150Z,21.22
2019-05-30T07:56:14.413Z,20.48
2019-05-30T08:01:18.964Z,19.67
2019-05-30T08:06:22.995Z,18.62
2019-05-30T08:11:27.123Z,20.90
2019-05-30T08:16:31.643Z,19.54
2019-05-30T08:21:36.287Z,20.75
2019-05-30T08:26:40.585Z,21.95
2019-05-30T08:31:45.866Z,21.65
2019-05-30T08:36:50.005Z,21.16
2019-05-30T08:41:54.124Z,20.09
2019-05-30T08:46:58.318Z,21.15
2019-05-30T08:52:02.472Z,20.46
2019-05-30T08:57:06.642Z,18.86
2019-05-30T09:02:10.980Z,19.94
2019-05-30T09:07:15.012Z,20.22
2019-05-30T09:12:19.090Z,20.22
2019-05-30T09:17:23.195Z,20.74
2019-05-30T09:22:27.234Z,20.74
2019-05-30T09:27:31.406Z,20.58
2019-05-30T09:32:35.542Z,20.04
2019-05-30T09:37:40.566Z,21.38
2019-05-30T09:42:46.934Z,20.96
2019-05-30T09:47:51.481Z,20.73
2019-05-30T09:52:56.614Z,22.40
2019-05-30T09:58:01.604Z,22.08
2019-05-30T10:03:05.876Z,22.20
2019-05-30T10:08:11.753Z,22.05
2019-05-30T10:13:19.286Z,22.48
2019-05-30T10:18:25.011Z,21.95
2019-05-30T10:23:31.031Z,23.53
2019-05-30T10:28:37.134Z,23.16
2019-05-30T10:33:44.521Z,23.21
2019-05-30T10:38:53.805Z,21.58
2019-05-30T10:43:59.765Z,23.36
2019-05-30T10:49:03.899Z,24.02
2019-05-30T10:54:08.086Z,23.73
2019-05-30T10:59:12.163Z,23.42
2019-05-30T11:04:16.246Z,23.40
2019-05-30T11:09:29.761Z,23.99
2019-05-30T11:14:34.588Z,23.81
2019-05-30T11:19:39.706Z,24.15
2019-05-30T11:24:44.379Z,23.94
2019-05-30T11:29:48.730Z,24.78
2019-05-30T11:34:53.341Z,25.35
2019-05-30T11:39:57.693Z,25.66
2019-05-30T11:45:03.266Z,24.81
2019-05-30T11:50:08.846Z,24.80
2019-05-30T11:55:13.907Z,26.43
2019-05-30T12:00:19.272Z,25.54
2019-05-30T12:05:25.333Z,27.57
2019-05-30T12:10:30.648Z,26.51
2019-05-30T12:15:34.704Z,25.86
2019-05-30T12:20:39.867Z,26.20
2019-05-30T12:25:43.936Z,26.51
2019-05-30T12:30:57.742Z,26.87
2019-05-30T12:35:54.424Z,27.28
2019-05-30T12:40:59.137Z,26.40
2019-05-30T12:46:03.770Z,26.40
2019-05-30T12:51:07.945Z,26.60
2019-05-30T12:56:12.027Z,26.17
2019-05-30T13:01:16.076Z,26.46
2019-05-30T13:06:20.107Z,26.35
2019-05-30T13:11:24.158Z,26.34
2019-05-30T13:16:30.403Z,25.92
2019-05-30T13:21:34.668Z,27.52
2019-05-30T13:26:38.763Z,26.76
2019-05-30T13:31:42.787Z,26.16
2019-05-30T13:36:46.833Z,26.42
2019-05-30T13:41:51.285Z,27.31
2019-05-30T13:46:55.359Z,26.50
2019-05-30T13:52:00.770Z,26.12
2019-05-30T13:57:05.770Z,25.82
2019-05-30T14:02:10.407Z,26.36
2019-05-30T14:07:14.644Z,25.49
2019-05-30T14:12:18.831Z,25.97
2019-05-30T14:17:22.879Z,27.16
2019-05-30T14:22:27.207Z,25.98
2019-05-30T14:27:32.079Z,25.97
2019-05-30T14:32:36.176Z,25.69
2019-05-30T14:37:40.221Z,24.90
2019-05-30T14:42:44.305Z,26.79
2019-05-30T14:47:48.673Z,26.76
2019-05-30T14:52:52.871Z,27.77
2019-05-30T14:57:58.207Z,29.07
2019-05-30T15:03:03.012Z,29.56
2019-05-30T15:08:08.344Z,30.07
2019-05-30T15:13:13.756Z,30.27
2019-05-30T15:18:17.840Z,31.03
2019-05-30T15:23:21.914Z,33.01
2019-05-30T15:28:26.029Z,30.22
2019-05-30T15:33:30.151Z,30.42
2019-05-30T15:38:34.600Z,31.17
2019-05-30T15:43:38.690Z,31.90
2019-05-30T15:48:43.317Z,33.24
2019-05-30T15:53:47.712Z,32.83
2019-05-30T15:58:51.718Z,33.91
2019-05-30T16:03:56.170Z,32.56
2019-05-30T16:09:00.310Z,34.44
2019-05-30T16:14:04.459Z,33.52
2019-05-30T16:19:19.324Z,33.09
2019-05-30T16:24:14.588Z,32.78
2019-05-30T16:29:19.791Z,33.84
2019-05-30T16:34:23.851Z,34.44
2019-05-30T16:39:28.161Z,34.46
2019-05-30T16:44:32.203Z,35.35
2019-05-30T16:49:36.263Z,35.76
2019-05-30T16:54:40.351Z,35.75
2019-05-30T16:59:44.390Z,35.80
2019-05-30T17:04:48.521Z,43.17
2019-05-30T17:09:52.629Z,46.37
2019-05-30T17:14:56.667Z,47.59
2019-05-30T17:20:00.868Z,48.46
2019-05-30T17:25:05.371Z,48.37
2019-05-30T17:30:10.172Z,48.25
2019-05-30T17:35:14.429Z,49.20
2019-05-30T17:40:18.667Z,49.78
2019-05-30T17:45:23.209Z,50.80
2019-05-30T17:50:27.866Z,50.60
2019-05-30T17:55:32.425Z,50.59
2019-05-30T18:00:36.534Z,51.27
2019-05-30T18:05:40.677Z,51.63
2019-05-30T18:10:53.325Z,52.23
2019-05-30T18:15:50.831Z,52.20
2019-05-30T18:20:55.489Z,52.13
2019-05-30T18:25:59.606Z,52.71
2019-05-30T18:31:03.685Z,52.54
2019-05-30T18:36:07.819Z,52.82
2019-05-30T18:41:16.396Z,53.18
2019-05-30T18:46:18.019Z,54.35
2019-05-30T18:51:22.085Z,53.86
2019-05-30T18:56:32.803Z,54.92
2019-05-30T19:01:37.964Z,54.59
2019-05-30T19:06:42.132Z,55.27
2019-05-30T19:11:46.217Z,55.27
2019-05-30T19:16:50.294Z,55.43
2019-05-30T19:21:55.134Z,55.61
2019-05-30T19:26:59.160Z,56.26
2019-05-30T19:32:03.333Z,56.64
2019-05-30T19:37:07.411Z,56.74
2019-05-30T19:42:11.461Z,57.36
2019-05-30T19:47:18.080Z,57.62
2019-05-30T19:52:24.078Z,59.04
2019-05-30T19:57:29.367Z,59.73
2019-05-30T20:02:33.982Z,59.63
2019-05-30T20:07:40.893Z,59.49
2019-05-30T20:12:46.261Z,59.70
2019-05-30T20:17:50.808Z,59.77
2019-05-30T20:22:56.878Z,60.76
2019-05-30T20:28:02.047Z,60.73
2019-05-30T20:33:07.014Z,61.42
2019-05-30T20:38:12.369Z,62.34
2019-05-30T20:43:17.503Z,62.20
2019-05-30T20:48:23.161Z,62.02
2019-05-30T20:53:27.933Z,62.33
2019-05-30T20:58:32.204Z,62.83
2019-05-30T21:03:37.815Z,63.39
2019-05-30T21:08:43.137Z,64.63
2019-05-30T21:13:50.104Z,65.64
2019-05-30T21:18:56.236Z,66.69
2019-05-30T21:24:00.375Z,67.82
2019-05-30T21:29:04.427Z,68.95
2019-05-30T21:34:08.488Z,69.78
2019-05-30T21:39:12.456Z,70.23
2019-05-30T21:44:17.216Z,71.14
2019-05-30T21:49:21.698Z,71.81
2019-05-30T21:54:26.104Z,72.25
2019-05-30T21:59:30.662Z,73.36
2019-05-30T22:04:35.058Z,74.23
2019-05-30T22:09:39.604Z,74.14
2019-05-30T22:14:44.078Z,75.07
2019-05-30T22:19:48.454Z,75.50
2019-05-30T22:24:52.931Z,75.52
2019-05-30T22:29:57.108Z,75.93
2019-05-30T22:35:01.149Z,76.21
2019-05-30T22:40:05.373Z,76.93
2019-05-30T22:45:09.557Z,77.67
2019-05-30T22:50:13.935Z,78.41
2019-05-30T22:55:18.066Z,78.53
2019-05-30T23:00:22.876Z,79.21
2019-05-30T23:05:27.017Z,79.47
2019-05-30T23:10:31.159Z,80.18
2019-05-30T23:15:35.599Z,80.39
2019-05-30T23:20:39.641Z,81.29
2019-05-30T23:25:43.819Z,81.64
2019-05-30T23:30:47.963Z,81.44
2019-05-30T23:35:52.378Z,81.76
2019-05-30T23:40:57.129Z,82.37
2019-05-30T23:46:01.253Z,82.42
2019-05-30T23:51:05.399Z,82.81
2019-05-30T23:56:09.453Z,83.84
